History for KNYNEWYO785

New York City, New York, NY — Current Conditions
Daily Summary for February 24, 2018
  Current: High: Low: Average:
Temperature: 51.4°F 58.1°F 46.6°F 52.3°F
Dew Point: 43.8°F 45.0°F 39.8°F 42.4°F
Humidity: 75% 77% 53% 69%
Wind Speed: - 0.0mph - 0.0mph
Wind Gust: - 0.0mph - -
Wind: North - - North
Pressure: 30.06in 30.06in 29.97in -
Precipitation: 0.00in      
Statistics for the rest of the month
    High: Low: Average:
Temperature:   106.9°F 23.2°F 50.5°F
Dew Point:   70.8°F 1.3°F 32.4°F
Humidity:   86.0% 22.0% 56.7%
Wind Speed:   0.0mph from the North - 0.0mph
Wind Gust:   0.0mph from the North - -
Wind:   - - North
Pressure:   30.69in 29.42in -
Precipitation:   0.00in    
KNYNEWYO785 Weather Graph
Tabular Data for February 24, 2018
Time Temp. Dew Point Pressure Wind Gust Humidity Rainfall
00:00 46.6°F 39.8°F 30.02in - 77% -
00:21 46.9°F 40.2°F 30.03in - 77% -
00:31 46.9°F 40.2°F 30.02in - 77% -
00:41 47.1°F 40.3°F 30.03in - 77% -
00:51 47.3°F 40.2°F 30.03in - 76% -
01:11 47.3°F 40.5°F 30.02in - 77% -
01:31 47.7°F 40.5°F 30.01in - 76% -
01:51 47.7°F 40.5°F 30.01in - 76% -
02:01 47.5°F 40.3°F 30.01in - 76% -
02:21 47.5°F 40.7°F 30.01in - 77% -
02:42 47.3°F 40.5°F 30.01in - 77% -
03:12 47.5°F 40.7°F 30.00in - 77% -
04:32 48.2°F 41.4°F 29.99in - 77% -
04:53 48.2°F 41.4°F 30.00in - 77% -
05:13 48.4°F 41.6°F 30.01in - 77% -
05:23 48.6°F 41.7°F 30.00in - 77% -
05:43 48.9°F 41.7°F 30.01in - 76% -
05:53 48.9°F 41.7°F 30.01in - 76% -
06:03 48.9°F 41.7°F 30.01in - 76% -
06:23 49.3°F 41.8°F 30.01in - 75% -
06:33 49.5°F 41.9°F 30.02in - 75% -
06:54 49.5°F 41.9°F 30.02in - 75% -
07:14 49.6°F 42.1°F 30.03in - 75% -
07:24 50.0°F 42.4°F 30.02in - 75% -
07:34 50.4°F 42.5°F 30.02in - 74% -
07:44 50.5°F 42.6°F 30.02in - 74% -
08:04 50.7°F 42.8°F 30.02in - 74% -
08:24 50.9°F 42.6°F 30.01in - 73% -
08:34 50.9°F 42.6°F 30.01in - 73% -
08:54 51.3°F 43.0°F 30.01in - 73% -
09:15 52.3°F 43.7°F 30.00in - 72% -
09:25 53.1°F 44.0°F 30.01in - 71% -
09:35 53.6°F 44.1°F 30.01in - 70% -
09:45 54.9°F 45.0°F 30.00in - 69% -
09:55 55.0°F 44.4°F 30.00in - 67% -
10:05 55.4°F 44.3°F 30.00in - 66% -
10:25 55.8°F 43.9°F 30.00in - 64% -
10:35 55.9°F 43.6°F 30.00in - 63% -
10:55 56.8°F 44.1°F 30.00in - 62% -
11:06 57.2°F 43.6°F 30.00in - 60% -
11:16 57.9°F 43.8°F 29.99in - 59% -
11:36 57.9°F 42.9°F 30.01in - 57% -
11:46 57.9°F 42.5°F 30.03in - 56% -
12:06 57.6°F 42.1°F 30.01in - 56% -
12:16 57.6°F 42.1°F 30.01in - 56% -
12:26 57.9°F 42.5°F 30.00in - 56% -
12:36 57.7°F 42.3°F 30.00in - 56% -
12:57 57.9°F 42.5°F 29.99in - 56% -
13:06 57.9°F 42.5°F 29.99in - 56% -
13:17 57.7°F 41.8°F 29.98in - 55% -
13:27 58.1°F 42.2°F 29.97in - 55% -
13:47 58.1°F 41.7°F 29.98in - 54% -
14:07 57.7°F 40.9°F 30.02in - 53% -
14:16 57.7°F 40.9°F 30.02in - 53% -
14:27 57.2°F 40.9°F 29.99in - 54% -
14:37 57.2°F 40.9°F 29.99in - 54% -
14:58 56.5°F 40.6°F 29.99in - 55% -
15:06 56.5°F 40.6°F 29.99in - 55% -
15:38 55.6°F 41.2°F 30.01in - 58% -
16:48 53.1°F 42.5°F 30.03in - 67% -
17:29 52.3°F 42.2°F 30.03in - 68% -
18:09 52.5°F 42.7°F 30.01in - 69% -
18:59 54.0°F 43.7°F 30.03in - 68% -
19:30 53.8°F 43.9°F 30.03in - 69% -
19:40 53.8°F 43.6°F 30.03in - 68% -
19:50 53.6°F 43.8°F 30.04in - 69% -
20:10 52.3°F 43.7°F 30.05in - 72% -
20:20 52.0°F 43.7°F 30.05in - 73% -
20:40 52.0°F 44.0°F 30.05in - 74% -
20:50 52.0°F 44.4°F 30.05in - 75% -
21:00 52.0°F 44.7°F 30.05in - 76% -
21:21 52.2°F 44.5°F 30.05in - 75% -
21:31 51.8°F 44.2°F 30.06in - 75% -
21:51 51.1°F 43.5°F 30.06in - 75% -
22:11 51.1°F 43.8°F 30.06in - 76% -
22:21 51.3°F 44.0°F 30.06in - 76% -
22:31 51.4°F 43.8°F 30.06in - 75% -
Comma Delimited File
Powered by Weather Underground, Inc.